Time;durP1;ratioP1;P1;durP2;ratioP2;P2;SDS_P1;SDS_P2;PMS_P1;PMS_P2;Temp;Humidity;BMP_temperature;BMP_pressure;BME280_temperature;BME280_humidity;BME280_pressure;Samples;Min_cycle;Max_cycle;Signal;HPM_P1;HPM_P2
2023/04/04 05:33:55;;;;;;;19.40;12.30;;;;;;;0.21;84.65;95125.75;103885;1308;557911;-64
2023/04/04 05:41:36;;;;;;;11.00;8.70;;;;;;;0.45;84.02;95121.77;105832;1289;24212;-65
2023/04/04 05:45:25;;;;;;;15.70;10.10;;;;;;;0.56;83.64;95119.81;105645;1289;23161;-64
2023/04/04 05:53:03;;;;;;;18.00;10.10;;;;;;;0.78;82.57;95119.91;105546;1289;22649;-65
2023/04/04 05:56:53;;;;;;;16.60;10.30;;;;;;;0.85;82.13;95121.19;105469;1289;24251;-65
2023/04/04 06:00:42;;;;;;;18.80;10.90;;;;;;;0.93;81.46;95116.61;105679;1289;23220;-62
2023/04/04 06:04:32;;;;;;;15.90;10.50;;;;;;;0.96;81.64;95118.88;105441;1289;22523;-64
2023/04/04 06:08:21;;;;;;;15.40;8.90;;;;;;;1.10;81.37;95116.27;105438;1289;22521;-63
2023/04/04 06:12:10;;;;;;;15.00;10.70;;;;;;;1.20;81.10;95112.72;105583;1289;22527;-64
2023/04/04 06:15:50;;;;;;;10.20;7.50;;;;;;;1.34;81.37;95114.08;105737;1289;24237;-68
2023/04/04 06:19:28;;;;;;;;;;;;;;;;;;;;;
2023/04/04 06:27:06;;;;;;;13.20;7.30;;;;;;;1.55;78.84;95113.20;109961;1281;22149;-64
2023/04/04 06:30:44;;;;;;;;;;;;;;;;;;;;;
2023/04/04 06:34:31;;;;;;;12.40;8.40;;;;;;;1.50;79.40;95116.11;110245;1278;22188;-62
2023/04/04 06:38:11;;;;;;;;;;;;;;;;;;;;;
2023/04/04 06:42:02;;;;;;;15.20;6.90;;;;;;;1.49;79.59;95115.06;110097;1278;22159;-62
2023/04/04 06:45:32;;;;;;;;;;;;;;;;;;;;;
2023/04/04 06:49:21;;;;;;;8.60;6.40;;;;;;;1.45;79.81;95113.12;110046;1278;22223;-65
2023/04/04 06:53:11;;;;;;;9.20;6.40;;;;;;;1.28;80.04;95117.83;110230;1278;22216;-67
2023/04/04 07:03:58;;;;;;;;;;;;;;;;;;;;;
2023/04/04 07:07:31;;;;;;;207.20;82.10;;;;;;;1.34;81.28;95110.95;110271;1278;22119;-63
2023/04/04 07:15:02;;;;;;;14.80;9.80;;;;;;;1.44;80.88;95117.79;110126;1278;22166;-65
2023/04/04 07:22:57;;;;;;;21.00;13.60;;;;;;;1.33;81.70;95119.95;110093;1278;22362;-65
2023/04/04 07:33:54;;;;;;;;;;;;;;;;;;;;;
2023/04/04 07:37:33;;;;;;;33.90;25.40;;;;;;;1.69;81.81;95121.81;110280;1278;22213;-65
2023/04/04 07:41:22;;;;;;;49.60;34.00;;;;;;;1.86;81.76;95121.60;110271;1277;22189;-65
2023/04/04 07:45:35;;;;;;;11.20;9.30;;;;;;;2.08;81.84;95124.00;110276;1277;22084;-64
2023/04/04 07:48:59;;;;;;;32.10;28.00;;;;;;;2.28;81.02;95117.52;110365;1278;22275;-63
2023/04/04 07:52:39;;;;;;;10.40;7.40;;;;;;;2.51;80.30;95119.90;110273;1277;22259;-64
2023/04/04 07:56:28;;;;;;;11.70;8.80;;;;;;;2.62;79.80;95118.40;110344;1278;22162;-63
2023/04/04 08:00:10;;;;;;;18.10;14.60;;;;;;;2.81;79.49;95116.38;110392;1278;22117;-63
2023/04/04 08:03:42;;;;;;;5.90;4.70;;;;;;;2.96;78.93;95119.04;110353;1277;22222;-64
2023/04/04 08:07:23;;;;;;;;;;;;;;;;;;;;;
2023/04/04 08:11:13;;;;;;;8.00;5.10;;;;;;;2.84;78.06;95121.94;110234;1277;22266;-66
2023/04/04 08:15:02;;;;;;;6.30;4.70;;;;;;;2.68;78.09;95117.90;110241;1278;22853;-66
2023/04/04 08:18:51;;;;;;;8.70;6.10;;;;;;;2.64;77.57;95122.41;110276;1278;22137;-62
2023/04/04 08:22:39;;;;;;;6.60;4.30;;;;;;;2.44;78.18;95122.48;110267;1277;22787;-63
2023/04/04 08:26:28;;;;;;;16.70;8.90;;;;;;;2.49;78.96;95123.18;110372;1278;22178;-64
2023/04/04 08:30:18;;;;;;;13.60;8.10;;;;;;;2.59;79.01;95123.94;110292;1278;22170;-64
2023/04/04 08:41:46;;;;;;;;;;;;;;;;;;;;;
2023/04/04 08:45:38;;;;;;;9.80;8.00;;;;;;;2.74;77.94;95121.91;110215;1277;22086;-65
2023/04/04 08:49:26;;;;;;;3.40;2.90;;;;;;;2.79;77.77;95120.70;110212;1277;22111;-68
2023/04/04 08:53:05;;;;;;;3.40;2.90;;;;;;;2.76;77.82;95121.75;110168;1277;22174;-65
2023/04/04 08:56:55;;;;;;;6.30;5.20;;;;;;;2.77;78.02;95125.91;110205;1278;22174;-66
2023/04/04 09:00:43;;;;;;;5.40;4.60;;;;;;;2.84;78.02;95122.81;110070;1278;22212;-67
2023/04/04 09:12:11;;;;;;;10.30;8.30;;;;;;;3.12;77.42;95122.54;110194;1278;22422;-65
2023/04/04 09:16:00;;;;;;;3.20;2.90;;;;;;;3.16;76.71;95124.48;110194;1263;22197;-63
2023/04/04 09:19:32;;;;;;;6.80;6.10;;;;;;;3.21;76.73;95125.88;110188;1278;22317;-64
2023/04/04 09:23:13;;;;;;;;;;;;;;;;;;;;;
2023/04/04 09:27:04;;;;;;;3.80;3.50;;;;;;;3.52;76.54;95122.27;110160;1278;23015;-63
2023/04/04 09:30:44;;;;;;;3.50;2.80;;;;;;;3.64;76.05;95119.67;110210;1278;22321;-63
2023/04/04 09:34:11;;;;;;;;;;;;;;;;;;;;;
2023/04/04 09:38:02;;;;;;;3.00;2.70;;;;;;;3.81;76.15;95120.54;110274;1278;23219;-63
2023/04/04 09:53:20;;;;;;;3.70;3.30;;;;;;;4.35;73.84;95118.38;110281;1278;22135;-63
2023/04/04 09:56:43;;;;;;;;;;;;;;;;;;;;;
2023/04/04 10:00:47;;;;;;;;;;;;;;;;;;;;;
2023/04/04 10:08:12;;;;;;;1.50;1.40;;;;;;;3.98;74.11;95128.71;110216;1278;22112;-62
2023/04/04 10:11:33;;;;;;;3.60;3.30;;;;;;;3.82;74.85;95127.50;110177;1278;22116;-62
2023/04/04 10:18:51;;;;;;;;;;;;;;;;;;;;;
2023/04/04 10:22:06;;;;;;;;;;;;;;;;;;;;;
2023/04/04 10:25:56;;;;;;;3.70;3.00;;;;;;;3.73;75.02;95129.77;110371;1278;22145;-63
2023/04/04 10:29:27;;;;;;;3.70;1.80;;;;;;;3.59;74.92;95137.23;110258;1278;22115;-63
2023/04/04 10:37:10;;;;;;;3.90;3.00;;;;;;;3.50;75.81;95140.69;110347;1278;22207;-63
2023/04/04 10:41:05;;;;;;;3.20;2.40;;;;;;;3.43;76.55;95139.30;110362;1270;22262;-62
2023/04/04 10:44:57;;;;;;;;;;;;;;;;;;;;;
2023/04/04 10:48:44;;;;;;;1.90;1.50;;;;;;;3.49;76.51;95139.83;110368;1258;22252;-62
2023/04/04 10:52:13;;;;;;;6.10;3.60;;;;;;;3.45;75.95;95137.73;110323;1278;22105;-62
2023/04/04 10:59:51;;;;;;;1.90;1.70;;;;;;;3.25;76.36;95143.27;110233;1278;22133;-62
2023/04/04 11:03:47;;;;;;;;;;;;;;;;;;;;;
2023/04/04 11:07:39;;;;;;;2.10;1.70;;;;;;;3.36;77.08;95137.37;110269;1272;22977;-63
2023/04/04 11:11:28;;;;;;;3.70;2.60;;;;;;;3.54;76.71;95137.06;110273;1278;22161;-62
2023/04/04 11:19:01;;;;;;;4.10;2.90;;;;;;;3.75;75.99;95134.11;110271;1278;22118;-62
2023/04/04 11:22:44;;;;;;;1.40;0.90;;;;;;;3.91;75.66;95134.98;110378;1278;22869;-62
2023/04/04 11:26:28;;;;;;;1.60;1.20;;;;;;;3.89;75.63;95133.59;110253;1278;22187;-62
2023/04/04 11:30:10;;;;;;;2.60;2.10;;;;;;;3.93;76.22;95134.11;110359;1278;22187;-62
2023/04/04 11:34:01;;;;;;;1.30;1.10;;;;;;;4.02;75.69;95132.36;110315;1278;22882;-62
2023/04/04 11:37:51;;;;;;;1.20;1.10;;;;;;;3.94;75.19;95135.16;110244;1278;22146;-62
2023/04/04 11:41:58;;;;;;;4.50;2.70;;;;;;;3.89;76.52;95131.50;110236;1278;22872;-62
2023/04/04 11:45:09;;;;;;;;;;;;;;;;;;;;;
2023/04/04 11:48:52;;;;;;;1.70;1.40;;;;;;;3.73;76.30;95134.63;110196;1278;22222;-62
2023/04/04 11:52:32;;;;;;;2.30;2.10;;;;;;;3.80;77.26;95134.45;110371;1278;22201;-62
2023/04/04 12:03:57;;;;;;;;;;;;;;;;;;;;;
2023/04/04 12:11:17;;;;;;;0.90;0.80;;;;;;;4.00;75.44;95132.37;110330;1277;22118;-62
2023/04/04 12:14:46;;;;;;;;;;;;;;;;;;;;;
2023/04/04 12:17:53;;;;;;;;;;;;;;;;;;;;;
2023/04/04 12:21:36;;;;;;;;;;;;;;;;;;;;;
2023/04/04 12:25:18;;;;;;;;;;;;;;;;;;;;;
2023/04/04 12:32:46;;;;;;;;;;;;;;;;;;;;;
2023/04/04 12:36:17;;;;;;;;;;;;;;;;;;;;;
2023/04/04 12:40:07;;;;;;;0.60;0.60;;;;;;;3.72;77.93;95115.67;110370;1272;22804;-62
2023/04/04 12:43:47;;;;;;;2.20;0.90;;;;;;;3.78;78.17;95119.66;110215;1278;22127;-62
2023/04/04 12:47:37;;;;;;;;;;;;;;;;;;;;;
2023/04/04 12:51:31;;;;;;;1.00;0.60;;;;;;;3.95;76.55;95119.67;110242;1278;22141;-63
2023/04/04 12:55:10;;;;;;;4.10;0.60;;;;;;;3.87;76.13;95120.02;110362;1278;22210;-63
2023/04/04 12:58:52;;;;;;;0.60;0.50;;;;;;;3.96;76.38;95115.84;110206;1278;22224;-63
2023/04/04 13:06:27;;;;;;;;;;;;;;;;;;;;;
2023/04/04 13:13:55;;;;;;;0.50;0.50;;;;;;;4.04;75.97;95123.66;110207;1278;22926;-63
2023/04/04 13:17:44;;;;;;;0.70;0.60;;;;;;;3.95;75.86;95120.89;110237;1278;22922;-63
2023/04/04 13:21:26;;;;;;;1.30;1.20;;;;;;;3.87;76.27;95119.67;110212;1278;22781;-63
2023/04/04 13:25:00;;;;;;;;;;;;;;;;;;;;;
2023/04/04 13:28:41;;;;;;;1.20;0.90;;;;;;;3.72;77.03;95122.63;110337;1278;22135;-69
2023/04/04 13:32:12;;;;;;;1.70;1.30;;;;;;;3.69;77.25;95127.85;110345;1278;22555;-63
2023/04/04 13:35:41;;;;;;;;;;;;;;;;;;;;;
2023/04/04 13:39:42;;;;;;;;;;;;;;;;;;;;;
2023/04/04 13:47:01;;;;;;;1.40;1.30;;;;;;;3.28;78.81;95141.02;110179;1278;22100;-63
2023/04/04 13:50:51;;;;;;;1.50;1.10;;;;;;;3.26;79.27;95139.10;110080;1278;22112;-63
2023/04/04 13:54:37;;;;;;;0.40;0.40;;;;;;;3.23;79.05;95140.98;110205;1278;22954;-63
2023/04/04 13:57:59;;;;;;;2.50;1.60;;;;;;;3.14;79.40;95141.84;110358;1278;22091;-63
2023/04/04 14:01:33;;;;;;;3.20;2.40;;;;;;;2.97;79.75;95143.88;110351;1278;22145;-63
2023/04/04 14:04:51;;;;;;;;;;;;;;;;;;;;;
2023/04/04 14:08:52;;;;;;;;;;;;;;;;;;;;;
2023/04/04 14:12:14;;;;;;;3.50;2.90;;;;;;;2.87;81.07;95152.17;110192;1278;22657;-63
2023/04/04 14:15:49;;;;;;;2.40;1.90;;;;;;;2.80;80.98;95156.84;110359;1278;22106;-63
2023/04/04 14:19:12;;;;;;;;;;;;;;;;;;;;;
2023/04/04 14:22:43;;;;;;;1.60;1.30;;;;;;;2.73;81.38;95160.64;110336;1278;22105;-63
2023/04/04 14:26:12;;;;;;;1.70;1.60;;;;;;;2.66;81.51;95158.88;110238;1278;22976;-63
2023/04/04 14:33:35;;;;;;;8.80;5.60;;;;;;;2.40;81.47;95170.36;110137;1278;22202;-63
2023/04/04 14:37:24;;;;;;;9.50;5.30;;;;;;;2.44;82.19;95170.39;110335;1278;22813;-62
2023/04/04 14:41:14;;;;;;;1.30;1.10;;;;;;;2.46;82.46;95172.64;110213;1278;22405;-63
2023/04/04 14:44:47;;;;;;;;;;;;;;;;;;;;;
2023/04/04 14:48:30;;;;;;;1.70;1.40;;;;;;;2.63;82.31;95171.52;110276;1278;22125;-62
2023/04/04 14:52:11;;;;;;;1.60;1.30;;;;;;;2.78;82.30;95171.94;110344;1278;22634;-63
2023/04/04 14:55:53;;;;;;;1.60;1.50;;;;;;;2.86;81.56;95175.28;110215;1278;22276;-62
2023/04/04 14:59:28;;;;;;;1.50;1.20;;;;;;;2.84;81.58;95175.95;110281;1278;22227;-63
2023/04/04 15:03:17;;;;;;;1.50;1.20;;;;;;;2.89;81.99;95183.45;110193;1278;22161;-63
2023/04/04 15:07:04;;;;;;;;;;;;;;;;;;;;;
2023/04/04 15:14:13;;;;;;;;;;;;;;;;;;;;;
2023/04/04 15:18:03;;;;;;;1.60;1.40;;;;;;;2.64;81.33;95193.76;110321;1278;22186;-63
2023/04/04 15:21:36;;;;;;;1.60;1.30;;;;;;;2.60;81.71;95192.16;110305;1278;22124;-63
2023/04/04 15:25:15;;;;;;;;;;;;;;;;;;;;;
2023/04/04 15:29:06;;;;;;;;;;;;;;;;;;;;;
2023/04/04 15:32:45;;;;;;;2.10;1.70;;;;;;;2.45;82.23;95196.25;110321;1278;22211;-62
2023/04/04 15:36:35;;;;;;;2.00;1.60;;;;;;;2.41;83.48;95200.05;110310;1278;22120;-63
2023/04/04 15:44:05;;;;;;;1.40;1.20;;;;;;;2.30;83.33;95203.96;110206;1278;22127;-63
2023/04/04 15:47:47;;;;;;;1.70;1.60;;;;;;;2.22;83.35;95204.07;110167;1278;22124;-63
2023/04/04 15:51:29;;;;;;;2.80;1.80;;;;;;;2.18;83.66;95200.58;110196;1278;22644;-63
2023/04/04 15:55:11;;;;;;;;;;;;;;;;;;;;;
2023/04/04 15:59:01;;;;;;;2.30;1.90;;;;;;;2.14;84.27;95196.39;110333;1278;22610;-63
2023/04/04 16:02:51;;;;;;;2.80;2.20;;;;;;;2.14;84.14;95197.95;110214;1278;22986;-62
2023/04/04 16:06:11;;;;;;;;;;;;;;;;;;;;;
2023/04/04 16:13:34;;;;;;;;;;;;;;;;;;;;;
2023/04/04 16:17:04;;;;;;;;;;;;;;;;;;;;;
2023/04/04 16:24:26;;;;;;;3.30;2.60;;;;;;;2.01;84.99;95204.80;110226;1278;22177;-62
2023/04/04 16:28:07;;;;;;;3.50;2.70;;;;;;;2.02;85.58;95207.23;110097;1278;22394;-63
2023/04/04 16:31:48;;;;;;;3.00;2.70;;;;;;;2.07;85.10;95203.80;110273;1278;22176;-62
2023/04/04 16:39:26;;;;;;;2.50;2.30;;;;;;;2.11;84.92;95207.98;110183;1278;22144;-62
2023/04/04 16:43:06;;;;;;;;;;;;;;;;;;;;;
2023/04/04 16:46:51;;;;;;;9.20;6.10;;;;;;;1.92;84.29;95210.09;110179;1278;22978;-63
2023/04/04 16:50:40;;;;;;;8.10;5.10;;;;;;;1.94;85.33;95215.48;110226;1278;22131;-62
2023/04/04 16:54:14;;;;;;;9.30;5.50;;;;;;;2.01;85.20;95211.73;110238;1278;22154;-62
2023/04/04 16:58:02;;;;;;;9.90;5.50;;;;;;;2.13;84.79;95209.05;110221;1278;22132;-62
2023/04/04 17:01:54;;;;;;;11.10;7.00;;;;;;;2.05;84.34;95213.16;110205;1278;22970;-62
2023/04/04 17:05:43;;;;;;;10.90;6.10;;;;;;;1.91;84.22;95213.37;110112;1278;22173;-62
2023/04/04 17:13:11;;;;;;;;;;;;;;;;;;;;;
2023/04/04 17:17:01;;;;;;;8.80;5.30;;;;;;;1.92;85.29;95211.30;110206;1278;22845;-62
2023/04/04 17:24:32;;;;;;;5.30;4.00;;;;;;;1.99;84.88;95216.58;110313;1278;22559;-62
2023/04/04 17:28:12;;;;;;;;;;;;;;;;;;;;;
2023/04/04 17:31:52;;;;;;;13.30;8.50;;;;;;;1.87;84.24;95219.94;110266;1278;22106;-63
2023/04/04 17:35:39;;;;;;;;;;;;;;;;;;;;;
2023/04/04 17:39:30;;;;;;;21.70;10.90;;;;;;;1.85;85.36;95224.60;105806;1278;22098;-63
2023/04/04 17:43:11;;;;;;;10.00;6.20;;;;;;;1.83;84.98;95228.91;110153;1278;22088;-63
2023/04/04 17:46:52;;;;;;;;;;;;;;;;;;;;;
2023/04/04 17:50:45;;;;;;;28.80;17.60;;;;;;;1.68;85.25;95235.20;110055;1278;22116;-63
2023/04/04 17:54:28;;;;;;;14.40;8.90;;;;;;;1.54;85.42;95241.81;110099;1278;22171;-62
2023/04/04 17:58:09;;;;;;;;;;;;;;;;;;;;;
2023/04/04 18:01:39;;;;;;;71.40;40.60;;;;;;;1.46;85.86;95242.08;110169;1278;22118;-63
2023/04/04 18:05:19;;;;;;;;;;;;;;;;;;;;;
2023/04/04 18:12:23;;;;;;;9.40;6.70;;;;;;;1.29;86.14;95254.73;110153;1278;22291;-63
2023/04/04 18:19:25;;;;;;;14.40;10.30;;;;;;;1.22;86.26;95258.62;110183;1278;22131;-62
2023/04/04 18:23:15;;;;;;;8.10;6.10;;;;;;;1.20;85.88;95261.88;110198;1278;22123;-63
2023/04/04 18:26:43;;;;;;;9.90;6.40;;;;;;;1.16;86.22;95263.21;110194;1278;22127;-63
2023/04/04 18:30:20;;;;;;;5.40;3.50;;;;;;;1.11;86.32;95267.14;110183;1278;22136;-63
2023/04/04 18:34:08;;;;;;;;;;;;;;;;;;;;;
2023/04/04 18:45:22;;;;;;;;;;;;;;;;;;;;;
2023/04/04 18:49:09;;;;;;;4.20;2.70;;;;;;;1.13;86.06;95270.27;110222;1279;23007;-63
2023/04/04 18:52:47;;;;;;;4.90;3.30;;;;;;;1.11;85.83;95274.94;110200;1274;22816;-62
2023/04/04 18:56:34;;;;;;;;;;;;;;;;;;;;;
2023/04/04 19:00:27;;;;;;;3.50;2.90;;;;;;;1.12;85.70;95276.00;110214;1279;23026;-62
2023/04/04 19:03:18;;;;;;;3.80;3.10;;;;;;;1.14;85.47;95275.31;110195;1279;22806;-62
2023/04/04 19:06:50;;;;;;;2.60;1.90;;;;;;;1.13;85.39;95273.23;110218;1279;22206;-62
2023/04/04 19:10:18;;;;;;;2.80;2.30;;;;;;;1.02;85.10;95278.30;110064;1279;23049;-62
2023/04/04 19:13:37;;;;;;;2.40;2.10;;;;;;;1.00;85.37;95274.80;110189;1279;22180;-62
2023/04/04 19:17:16;;;;;;;;;;;;;;;;;;;;;
2023/04/04 19:20:42;;;;;;;;;;;;;;;;;;;;;
2023/04/04 19:28:22;;;;;;;2.20;1.90;;;;;;;0.97;85.28;95272.67;110086;1279;22274;-62
2023/04/04 19:31:38;;;;;;;2.90;2.00;;;;;;;0.95;85.63;95269.89;110078;1279;22137;-62
2023/04/04 19:35:20;;;;;;;2.30;1.80;;;;;;;0.91;85.45;95270.69;110109;1279;22121;-63
2023/04/04 19:39:12;;;;;;;2.50;2.10;;;;;;;0.77;85.66;95272.42;110107;1279;22128;-62
2023/04/04 19:42:50;;;;;;;;;;;;;;;;;;;;;
2023/04/04 19:46:58;;;;;;;3.20;2.20;;;;;;;0.69;86.37;95275.41;110203;1279;22100;-62
2023/04/04 19:50:17;;;;;;;3.70;2.20;;;;;;;0.61;86.31;95280.16;109829;1279;22135;-62
2023/04/04 19:54:01;;;;;;;1.80;1.70;;;;;;;0.57;86.21;95278.89;110124;1276;22185;-62
2023/04/04 19:57:53;;;;;;;1.70;1.60;;;;;;;0.54;86.73;95283.68;110134;1279;22171;-62
2023/04/04 20:01:42;;;;;;;2.50;1.90;;;;;;;0.46;86.17;95286.52;110079;1279;22749;-62
2023/04/04 20:05:55;;;;;;;3.80;2.30;;;;;;;0.36;86.53;95287.05;110222;1279;22266;-62
2023/04/04 20:09:31;;;;;;;2.30;1.90;;;;;;;0.30;86.79;95283.49;110203;1279;22162;-62
2023/04/04 20:13:11;;;;;;;;;;;;;;;;;;;;;
2023/04/04 20:17:22;;;;;;;2.60;2.20;;;;;;;0.33;86.86;95287.00;110034;1279;22290;-62
2023/04/04 20:24:33;;;;;;;2.90;2.20;;;;;;;0.34;87.16;95290.66;110185;1279;22287;-62
2023/04/04 20:28:20;;;;;;;2.40;1.80;;;;;;;0.37;86.92;95295.38;110123;1279;22148;-62
2023/04/04 20:32:09;;;;;;;3.60;2.50;;;;;;;0.41;86.96;95296.83;110237;1279;22292;-62
2023/04/04 20:36:04;;;;;;;6.00;3.60;;;;;;;0.49;87.00;95293.14;110088;1279;22100;-62
2023/04/04 20:39:54;;;;;;;3.80;2.50;;;;;;;0.56;86.73;95293.41;110185;1279;23076;-62
2023/04/04 20:47:32;;;;;;;2.90;2.20;;;;;;;0.65;86.16;95287.48;110060;1279;22174;-62
2023/04/04 20:55:14;;;;;;;2.30;2.00;;;;;;;0.74;85.81;95290.02;110126;1279;22101;-63
2023/04/04 20:59:11;;;;;;;2.90;1.90;;;;;;;0.76;85.67;95294.57;110063;1279;22116;-63
2023/04/04 21:02:56;;;;;;;2.50;2.30;;;;;;;0.73;85.54;95292.08;109841;1279;22151;-62
2023/04/04 21:06:30;;;;;;;5.60;3.90;;;;;;;0.75;85.62;95291.27;110069;1279;22188;-62
2023/04/04 21:09:57;;;;;;;3.80;2.10;;;;;;;0.67;85.49;95296.69;110127;1279;22198;-62
2023/04/04 21:13:47;;;;;;;2.50;2.20;;;;;;;0.62;85.80;95295.74;110201;1274;22170;-63
2023/04/04 21:17:36;;;;;;;2.90;1.90;;;;;;;0.61;85.71;95296.77;110063;1279;22160;-62
2023/04/04 21:21:21;;;;;;;2.30;1.80;;;;;;;0.54;85.65;95296.48;110018;1279;22083;-62
2023/04/04 21:25:02;;;;;;;;;;;;;;;;;;;;;
2023/04/04 21:28:52;;;;;;;2.50;2.00;;;;;;;0.44;86.02;95297.21;110027;1279;23081;-62
2023/04/04 21:32:20;;;;;;;;;;;;;;;;;;;;;
2023/04/04 21:36:19;;;;;;;1.30;1.20;;;;;;;0.34;86.56;95304.67;110104;1279;22104;-62
2023/04/04 21:40:07;;;;;;;1.40;1.10;;;;;;;0.33;86.99;95303.97;109898;1279;22971;-62
2023/04/04 21:47:45;;;;;;;1.60;1.50;;;;;;;0.27;86.76;95302.46;110120;1279;23075;-62
2023/04/04 21:55:13;;;;;;;1.30;1.20;;;;;;;0.24;86.85;95300.51;110142;1279;22363;-63
2023/04/04 21:59:02;;;;;;;2.00;1.70;;;;;;;0.23;86.60;95299.13;110166;1279;22414;-69
2023/04/04 22:02:50;;;;;;;2.30;1.80;;;;;;;0.29;86.86;95298.70;110086;1279;22122;-63
2023/04/04 22:10:09;;;;;;;;;;;;;;;;;;;;;
2023/04/04 22:17:39;;;;;;;2.40;2.00;;;;;;;0.44;87.12;95295.30;110212;1279;22123;-62
2023/04/04 22:21:28;;;;;;;3.00;2.20;;;;;;;0.53;86.98;95291.11;110221;1279;23041;-62
2023/04/04 22:25:02;;;;;;;;;;;;;;;;;;;;;
2023/04/04 22:28:52;;;;;;;7.50;3.60;;;;;;;0.73;86.43;95293.14;110013;1279;22883;-63
2023/04/04 22:32:33;;;;;;;;;;;;;;;;;;;;;
2023/04/04 22:36:23;;;;;;;2.60;1.60;;;;;;;0.77;85.87;95301.50;110013;1279;22115;-62
2023/04/04 22:52:05;;;;;;;1.20;1.10;;;;;;;0.93;84.34;95300.34;110060;1279;22103;-62
2023/04/04 22:55:28;;;;;;;3.90;2.30;;;;;;;0.85;84.24;95304.04;110082;1279;23021;-62
2023/04/04 22:59:10;;;;;;;2.50;1.90;;;;;;;0.75;84.27;95296.10;109995;1279;23037;-62
2023/04/04 23:06:16;;;;;;;3.00;1.60;;;;;;;0.58;84.88;95297.42;110116;1279;22136;-62
2023/04/04 23:10:06;;;;;;;;;;;;;;;;;;;;;
2023/04/04 23:13:40;;;;;;;;;;;;;;;;;;;;;
2023/04/04 23:17:31;;;;;;;0.90;0.80;;;;;;;0.33;85.47;95302.57;110230;1279;22066;-62
2023/04/04 23:21:22;;;;;;;1.50;1.00;;;;;;;0.23;86.25;95308.98;110112;1279;22256;-63
2023/04/04 23:25:11;;;;;;;1.60;1.50;;;;;;;0.23;86.65;95308.98;110078;1279;22287;-62
2023/04/04 23:29:00;;;;;;;1.30;1.20;;;;;;;0.20;87.51;95312.73;110076;1279;22140;-62
2023/04/04 23:32:42;;;;;;;1.50;1.30;;;;;;;0.22;87.87;95310.34;110114;1279;22807;-62
2023/04/04 23:36:31;;;;;;;1.10;1.00;;;;;;;0.24;87.55;95305.19;110185;1279;22159;-62
2023/04/04 23:40:11;;;;;;;;;;;;;;;;;;;;;
2023/04/04 23:44:00;;;;;;;1.30;1.10;;;;;;;0.17;88.06;95307.50;110101;1279;22953;-62
2023/04/04 23:47:49;;;;;;;2.20;1.70;;;;;;;0.16;88.10;95303.67;110100;1279;23065;-62
2023/04/04 23:51:43;;;;;;;2.20;1.70;;;;;;;0.16;88.00;95301.95;110199;1279;22259;-62
2023/04/04 23:54:45;;;;;;;2.70;2.10;;;;;;;0.14;88.13;95304.00;110097;1279;22208;-62
2023/04/04 23:58:18;;;;;;;;;;;;;;;;;;;;;
